createdAt,value
2022-12-27T00:00:32.042Z,96.18
2022-12-27T00:02:58.827Z,94.28
2022-12-27T00:05:25.806Z,69.82
2022-12-27T00:07:52.679Z,66.28
2022-12-27T00:10:19.646Z,73.13
2022-12-27T00:12:46.447Z,72.07
2022-12-27T00:15:13.333Z,88.90
2022-12-27T00:17:40.258Z,91.75
2022-12-27T00:20:11.478Z,93.57
2022-12-27T00:22:38.987Z,91.83
2022-12-27T00:25:06.119Z,83.30
2022-12-27T00:27:32.865Z,93.50
2022-12-27T00:29:59.754Z,94.05
2022-12-27T00:32:26.765Z,90.65
2022-12-27T00:34:53.856Z,75.22
2022-12-27T00:37:20.680Z,76.15
2022-12-27T00:39:48.031Z,98.43
2022-12-27T00:42:14.944Z,76.40
2022-12-27T00:44:43.991Z,89.07
2022-12-27T00:47:18.098Z,73.00
2022-12-27T00:49:46.415Z,82.97
2022-12-27T00:52:15.371Z,100.25
2022-12-27T00:54:42.228Z,76.68
2022-12-27T00:57:13.613Z,99.75
2022-12-27T00:59:40.487Z,104.25
2022-12-27T01:02:14.296Z,73.72
2022-12-27T01:04:44.343Z,102.10
2022-12-27T01:07:13.561Z,107.40
2022-12-27T01:10:14.273Z,92.40
2022-12-27T01:12:41.505Z,105.03
2022-12-27T01:15:10.195Z,74.63
2022-12-27T01:17:37.268Z,99.97
2022-12-27T01:20:07.609Z,106.60
2022-12-27T01:22:34.535Z,98.50
2022-12-27T01:25:04.825Z,109.65
2022-12-27T01:27:39.032Z,80.47
2022-12-27T01:30:13.188Z,69.20
2022-12-27T01:32:40.227Z,87.68
2022-12-27T01:35:09.747Z,104.20
2022-12-27T01:37:42.652Z,76.85
2022-12-27T01:40:14.888Z,96.78
2022-12-27T01:42:56.279Z,75.00
2022-12-27T01:45:32.653Z,96.00
2022-12-27T01:48:32.215Z,102.60
2022-12-27T01:51:16.797Z,98.43
2022-12-27T01:53:53.547Z,104.38
2022-12-27T01:56:30.315Z,84.25
2022-12-27T01:59:05.456Z,100.93
2022-12-27T02:01:38.691Z,104.07
2022-12-27T02:04:15.738Z,105.72
2022-12-27T02:06:48.468Z,112.00
2022-12-27T02:09:33.581Z,114.63
2022-12-27T02:12:09.754Z,114.93
2022-12-27T02:14:41.517Z,111.70
2022-12-27T02:17:25.251Z,116.20
2022-12-27T02:20:11.109Z,106.72
2022-12-27T02:23:27.759Z,104.97
2022-12-27T02:26:02.178Z,105.13
2022-12-27T02:29:06.814Z,111.72
2022-12-27T02:32:00.284Z,94.45
2022-12-27T02:34:51.483Z,102.82
2022-12-27T02:37:23.509Z,102.70
2022-12-27T02:42:42.059Z,111.22
2022-12-27T02:45:38.629Z,112.38
2022-12-27T02:48:32.019Z,114.18
2022-12-27T02:51:31.344Z,109.95
2022-12-27T02:54:08.465Z,85.40
2022-12-27T02:57:09.917Z,111.80
2022-12-27T03:00:23.437Z,81.03
2022-12-27T03:03:17.886Z,107.10
2022-12-27T03:06:18.381Z,95.70
2022-12-27T03:09:10.760Z,87.93
2022-12-27T03:12:06.153Z,105.53
2022-12-27T03:15:05.703Z,106.82
2022-12-27T03:17:48.035Z,72.57
2022-12-27T03:20:40.430Z,99.13
2022-12-27T03:23:28.316Z,66.85
2022-12-27T03:25:58.146Z,94.93
2022-12-27T03:28:52.215Z,77.43
2022-12-27T03:31:52.519Z,93.13
2022-12-27T03:34:40.646Z,70.57
2022-12-27T03:37:44.608Z,91.95
2022-12-27T03:41:23.015Z,101.97
2022-12-27T03:43:55.443Z,110.15
2022-12-27T03:46:35.353Z,108.22
2022-12-27T03:49:05.593Z,112.72
2022-12-27T03:51:45.806Z,122.97
2022-12-27T03:54:49.497Z,116.35
2022-12-27T03:57:28.622Z,103.70
2022-12-27T03:59:56.909Z,80.80
2022-12-27T04:02:27.942Z,114.70
2022-12-27T04:04:58.031Z,108.43
2022-12-27T04:07:26.743Z,96.57
2022-12-27T04:10:12.256Z,84.93
2022-12-27T04:12:57.934Z,104.47
2022-12-27T04:15:44.274Z,104.32
2022-12-27T04:18:30.699Z,96.90
2022-12-27T04:21:21.744Z,118.75
2022-12-27T04:24:16.061Z,111.53
2022-12-27T04:27:04.316Z,117.90
2022-12-27T04:29:51.066Z,83.28
2022-12-27T04:32:41.577Z,83.55
2022-12-27T04:35:13.110Z,84.50
2022-12-27T04:37:45.291Z,105.40
2022-12-27T04:40:42.040Z,115.80
2022-12-27T04:43:31.767Z,114.05
2022-12-27T04:46:24.976Z,117.60
2022-12-27T04:49:19.325Z,114.78
2022-12-27T04:52:08.249Z,79.00
2022-12-27T04:54:54.040Z,123.53
2022-12-27T04:57:30.363Z,130.85
2022-12-27T05:00:16.472Z,147.50
2022-12-27T05:02:43.639Z,124.22
2022-12-27T05:05:13.197Z,123.63
2022-12-27T05:08:05.747Z,128.20
2022-12-27T05:10:54.473Z,117.78
2022-12-27T05:13:41.853Z,123.28
2022-12-27T05:16:08.829Z,120.60
2022-12-27T05:18:40.117Z,100.10
2022-12-27T05:21:07.846Z,94.05
2022-12-27T05:24:04.904Z,113.88
2022-12-27T05:26:38.954Z,117.40
2022-12-27T05:29:12.908Z,112.15
2022-12-27T05:31:51.806Z,85.68
2022-12-27T05:34:18.677Z,113.72
2022-12-27T05:36:51.041Z,153.45
2022-12-27T05:39:23.734Z,127.93
2022-12-27T05:41:50.573Z,80.65
2022-12-27T05:44:17.453Z,77.53
2022-12-27T05:46:44.911Z,99.50
2022-12-27T05:49:14.376Z,104.10
2022-12-27T05:51:46.340Z,144.68
2022-12-27T05:54:23.402Z,123.88
2022-12-27T05:57:03.365Z,170.15
2022-12-27T05:59:34.575Z,171.63
2022-12-27T06:02:06.597Z,141.05
2022-12-27T06:04:34.917Z,141.68
2022-12-27T06:07:01.739Z,132.38
2022-12-27T06:09:34.512Z,135.23
2022-12-27T06:12:09.385Z,147.40
2022-12-27T06:14:42.092Z,136.98
2022-12-27T06:17:08.969Z,169.63
2022-12-27T06:19:35.833Z,168.10
2022-12-27T06:22:02.682Z,134.77
2022-12-27T06:24:29.499Z,115.20
2022-12-27T06:26:59.247Z,104.78
2022-12-27T06:29:37.962Z,256.90
2022-12-27T06:32:08.793Z,130.70
2022-12-27T06:34:38.732Z,169.65
2022-12-27T06:37:09.769Z,113.15
2022-12-27T06:39:36.715Z,96.35
2022-12-27T06:42:06.374Z,102.40
2022-12-27T06:44:33.380Z,80.90
2022-12-27T06:47:02.587Z,80.10
2022-12-27T06:49:35.454Z,72.20
2022-12-27T06:52:13.255Z,72.15
2022-12-27T06:54:41.788Z,70.80
2022-12-27T06:57:11.683Z,65.00
2022-12-27T06:59:49.503Z,69.68
2022-12-27T07:02:22.694Z,64.80
2022-12-27T07:04:49.851Z,60.63
2022-12-27T07:07:19.719Z,64.22
2022-12-27T07:09:47.898Z,72.13
2022-12-27T07:12:17.700Z,67.88
2022-12-27T07:14:44.601Z,62.63
2022-12-27T07:17:11.720Z,66.15
2022-12-27T07:19:41.556Z,54.17
2022-12-27T07:22:08.698Z,53.80
2022-12-27T07:24:41.780Z,50.80
2022-12-27T07:27:09.887Z,61.05
2022-12-27T07:29:45.273Z,74.60
2022-12-27T07:32:15.513Z,66.97
2022-12-27T07:34:42.446Z,62.10
2022-12-27T07:37:09.391Z,76.93
2022-12-27T07:39:39.230Z,45.20
2022-12-27T07:42:09.157Z,66.55
2022-12-27T07:44:43.593Z,56.75
2022-12-27T07:47:10.484Z,43.88
2022-12-27T07:49:40.180Z,44.60
2022-12-27T07:52:09.513Z,53.72
2022-12-27T07:54:36.517Z,43.33
2022-12-27T07:57:07.596Z,45.22
2022-12-27T08:02:19.058Z,73.27
2022-12-27T08:04:50.455Z,65.32
2022-12-27T08:07:20.966Z,63.50
2022-12-27T08:09:59.018Z,43.90
2022-12-27T08:12:25.859Z,55.70
2022-12-27T08:15:06.382Z,45.88
2022-12-27T08:17:33.366Z,43.28
2022-12-27T08:20:01.967Z,45.22
2022-12-27T08:22:28.971Z,48.00
2022-12-27T08:25:08.318Z,41.15
2022-12-27T08:27:35.217Z,45.67
2022-12-27T08:30:02.312Z,50.13
2022-12-27T08:32:29.273Z,41.90
2022-12-27T08:35:07.001Z,43.75
2022-12-27T08:37:46.719Z,58.10
2022-12-27T08:42:54.347Z,38.45
2022-12-27T08:45:21.346Z,39.72
2022-12-27T08:47:59.647Z,38.75
2022-12-27T08:50:27.364Z,45.13
2022-12-27T08:53:04.448Z,40.33
2022-12-27T08:55:36.425Z,40.47
2022-12-27T08:58:16.390Z,42.60
2022-12-27T09:00:46.192Z,41.90
2022-12-27T09:03:13.276Z,36.30
2022-12-27T09:05:42.102Z,37.50
2022-12-27T09:08:15.970Z,39.80
2022-12-27T09:10:51.495Z,36.40
2022-12-27T09:13:18.594Z,46.80
2022-12-27T09:15:49.565Z,41.35
2022-12-27T09:18:19.529Z,42.38
2022-12-27T09:20:51.464Z,35.72
2022-12-27T09:23:20.245Z,48.95
2022-12-27T09:25:49.404Z,33.28
2022-12-27T09:28:19.345Z,34.88
2022-12-27T09:30:48.837Z,46.40
2022-12-27T09:33:18.200Z,33.05
2022-12-27T09:35:45.782Z,46.90
2022-12-27T09:38:18.270Z,37.55
2022-12-27T09:43:27.723Z,49.13
2022-12-27T09:46:11.467Z,53.92
2022-12-27T09:48:44.043Z,35.25
2022-12-27T09:53:57.143Z,38.10
2022-12-27T09:56:54.620Z,37.83
2022-12-27T09:59:24.187Z,50.65
2022-12-27T10:01:55.847Z,54.10
2022-12-27T10:05:09.787Z,57.08
2022-12-27T10:07:43.048Z,54.72
2022-12-27T10:10:28.075Z,40.47
2022-12-27T10:13:16.852Z,35.78
2022-12-27T10:15:52.993Z,40.08
2022-12-27T10:18:47.440Z,45.28
2022-12-27T10:21:25.097Z,55.28
2022-12-27T10:23:58.547Z,46.03
2022-12-27T10:26:28.688Z,44.10
2022-12-27T10:29:13.685Z,38.92
2022-12-27T10:31:46.978Z,37.80
2022-12-27T10:34:27.335Z,64.90
2022-12-27T10:36:54.402Z,45.10
2022-12-27T10:39:38.855Z,55.95
2022-12-27T10:42:40.194Z,40.50
2022-12-27T10:45:38.200Z,42.35
2022-12-27T10:48:47.328Z,55.20
2022-12-27T10:51:21.601Z,60.42
2022-12-27T10:53:59.327Z,49.05
2022-12-27T10:56:36.813Z,50.65
2022-12-27T10:59:29.573Z,47.47
2022-12-27T11:02:12.550Z,66.60
2022-12-27T11:04:57.159Z,52.80
2022-12-27T11:07:35.332Z,48.30
2022-12-27T11:10:11.318Z,70.15
2022-12-27T11:12:39.768Z,62.97
2022-12-27T11:15:23.743Z,78.20
2022-12-27T11:18:03.672Z,52.15
2022-12-27T11:20:51.486Z,53.45
2022-12-27T11:23:24.088Z,55.97
2022-12-27T11:25:55.106Z,68.93
2022-12-27T11:28:57.892Z,64.15
2022-12-27T11:31:38.065Z,76.13
2022-12-27T11:34:37.810Z,52.85
2022-12-27T11:37:25.141Z,75.45
2022-12-27T11:40:21.601Z,70.38
2022-12-27T11:43:05.077Z,68.97
2022-12-27T11:45:42.791Z,57.72
2022-12-27T11:48:38.053Z,63.10
2022-12-27T11:51:42.249Z,58.78
2022-12-27T11:54:38.101Z,54.40
2022-12-27T11:57:07.524Z,51.88
2022-12-27T12:00:07.813Z,58.78
2022-12-27T12:02:39.899Z,54.50
2022-12-27T12:05:25.591Z,56.35
2022-12-27T12:08:11.260Z,59.75
2022-12-27T12:11:03.045Z,67.38
2022-12-27T12:13:41.829Z,65.57
2022-12-27T12:16:36.902Z,71.82
2022-12-27T12:19:13.806Z,53.03
2022-12-27T12:21:58.160Z,51.10
2022-12-27T12:24:42.423Z,58.83
2022-12-27T12:27:54.033Z,68.25
2022-12-27T12:31:01.577Z,68.63
2022-12-27T12:34:17.060Z,52.78
2022-12-27T12:37:11.138Z,50.78
2022-12-27T12:40:01.407Z,74.40
2022-12-27T12:43:01.824Z,50.20
2022-12-27T12:45:50.331Z,53.83
2022-12-27T12:48:37.548Z,50.55
2022-12-27T12:51:44.799Z,57.97
2022-12-27T12:54:28.053Z,52.40
2022-12-27T12:57:31.295Z,62.97
2022-12-27T13:00:40.007Z,55.30
2022-12-27T13:03:59.157Z,68.93
2022-12-27T13:07:09.673Z,75.93
2022-12-27T13:09:42.531Z,55.28
2022-12-27T13:12:34.192Z,58.22
2022-12-27T13:15:54.678Z,63.63
2022-12-27T13:18:31.988Z,63.53
2022-12-27T13:21:21.971Z,59.10
2022-12-27T13:24:29.407Z,75.63
2022-12-27T13:27:18.088Z,67.82
2022-12-27T13:30:24.286Z,61.17
2022-12-27T13:33:21.198Z,60.05
2022-12-27T13:36:00.759Z,58.30
2022-12-27T13:38:49.329Z,63.55
2022-12-27T13:41:16.224Z,61.25
2022-12-27T13:44:03.489Z,74.35
2022-12-27T13:46:43.834Z,62.08
2022-12-27T13:50:01.180Z,76.10
2022-12-27T13:53:03.674Z,63.83
2022-12-27T13:55:42.549Z,59.53
2022-12-27T13:58:23.093Z,65.50
2022-12-27T14:01:05.407Z,74.30
2022-12-27T14:03:50.702Z,66.05
2022-12-27T14:06:30.014Z,60.72
2022-12-27T14:09:48.161Z,59.42
2022-12-27T14:12:40.217Z,68.00
2022-12-27T14:15:13.131Z,62.47
2022-12-27T14:17:45.474Z,62.55
2022-12-27T14:20:40.628Z,61.88
2022-12-27T14:23:39.450Z,60.60
2022-12-27T14:26:44.192Z,58.33
2022-12-27T14:29:48.410Z,58.50
2022-12-27T14:32:48.623Z,59.28
2022-12-27T14:35:38.442Z,81.68
2022-12-27T14:38:09.377Z,69.75
2022-12-27T14:41:34.605Z,64.63
2022-12-27T14:44:33.970Z,65.20
2022-12-27T14:47:39.668Z,60.90
2022-12-27T14:50:23.806Z,65.30
2022-12-27T14:53:26.843Z,100.43
2022-12-27T14:56:01.956Z,76.47
2022-12-27T14:58:39.317Z,92.05
2022-12-27T15:01:22.847Z,69.22
2022-12-27T15:03:49.850Z,69.80
2022-12-27T15:06:53.458Z,68.78
2022-12-27T15:09:37.871Z,66.35
2022-12-27T15:12:36.708Z,82.03
2022-12-27T15:15:21.465Z,69.70
2022-12-27T15:18:10.135Z,73.10
2022-12-27T15:20:36.917Z,72.53
2022-12-27T15:23:20.006Z,68.90
2022-12-27T15:26:32.105Z,67.32
2022-12-27T15:29:18.700Z,76.22
2022-12-27T15:31:58.718Z,88.63
2022-12-27T15:34:33.333Z,79.93
2022-12-27T15:37:00.307Z,79.18
2022-12-27T15:39:49.414Z,78.05
2022-12-27T15:42:48.380Z,71.53
2022-12-27T15:48:53.322Z,73.15
2022-12-27T15:51:41.330Z,76.25
2022-12-27T15:54:24.005Z,75.78
2022-12-27T15:59:50.968Z,99.75
2022-12-27T16:02:17.984Z,73.38
2022-12-27T16:05:04.782Z,74.82
2022-12-27T16:07:45.825Z,70.88
2022-12-27T16:11:05.286Z,72.97
2022-12-27T16:13:43.390Z,89.32
2022-12-27T16:16:45.909Z,87.15
2022-12-27T16:19:47.096Z,98.57
2022-12-27T16:23:03.073Z,88.50
2022-12-27T16:25:35.906Z,76.25
2022-12-27T16:28:20.759Z,76.90
2022-12-27T16:31:15.293Z,90.25
2022-12-27T16:33:43.467Z,82.82
2022-12-27T16:36:25.806Z,77.68
2022-12-27T16:39:07.294Z,98.63
2022-12-27T16:41:58.435Z,70.82
2022-12-27T16:44:25.348Z,82.22
2022-12-27T16:46:58.537Z,95.22
2022-12-27T16:50:03.152Z,107.03
2022-12-27T16:52:41.967Z,105.88
2022-12-27T16:55:40.598Z,82.35
2022-12-27T16:58:40.381Z,90.97
2022-12-27T17:03:45.963Z,99.97
2022-12-27T17:06:33.167Z,91.85
2022-12-27T17:09:09.752Z,81.22
2022-12-27T17:11:42.355Z,87.82
2022-12-27T17:17:00.505Z,79.03
2022-12-27T17:19:45.722Z,87.32
2022-12-27T17:22:15.971Z,99.18
2022-12-27T17:24:48.267Z,97.88
2022-12-27T17:27:41.071Z,83.28
2022-12-27T17:32:50.328Z,93.55
2022-12-27T17:36:00.996Z,91.63
2022-12-27T17:38:49.852Z,92.97
2022-12-27T17:42:13.133Z,87.30
2022-12-27T17:44:59.023Z,80.72
2022-12-27T17:48:00.257Z,87.97
2022-12-27T17:50:28.132Z,94.50
2022-12-27T17:53:41.208Z,95.13
2022-12-27T17:56:43.207Z,96.63
2022-12-27T17:59:27.417Z,93.05
2022-12-27T18:02:06.248Z,98.13
2022-12-27T18:04:46.838Z,88.55
2022-12-27T18:07:26.088Z,109.80
2022-12-27T18:10:05.257Z,96.15
2022-12-27T18:12:44.702Z,91.68
2022-12-27T18:15:23.914Z,118.10
2022-12-27T18:18:02.882Z,133.48
2022-12-27T18:20:35.064Z,105.38
2022-12-27T18:23:12.166Z,104.43
2022-12-27T18:25:47.510Z,114.18
2022-12-27T18:28:28.703Z,112.53
2022-12-27T18:31:15.838Z,104.22
2022-12-27T18:33:55.509Z,107.82
2022-12-27T18:36:45.704Z,104.28
2022-12-27T18:39:36.969Z,101.97
2022-12-27T18:42:17.838Z,117.53
2022-12-27T18:45:00.488Z,127.30
2022-12-27T18:50:10.930Z,108.97
2022-12-27T18:52:54.694Z,116.57
2022-12-27T18:55:32.319Z,107.93
2022-12-27T18:58:13.730Z,105.65
2022-12-27T19:01:07.848Z,103.90
2022-12-27T19:03:41.237Z,115.25
2022-12-27T19:06:19.074Z,108.97
2022-12-27T19:08:55.069Z,100.50
2022-12-27T19:11:36.041Z,107.75
2022-12-27T19:14:06.123Z,107.05
2022-12-27T19:16:37.807Z,136.30
2022-12-27T19:19:16.898Z,107.47
2022-12-27T19:21:46.882Z,102.68
2022-12-27T19:24:30.008Z,108.97
2022-12-27T19:27:01.046Z,104.35
2022-12-27T19:29:42.695Z,142.82
2022-12-27T19:32:18.370Z,129.67
2022-12-27T19:34:58.146Z,108.45
2022-12-27T19:37:31.867Z,118.03
2022-12-27T19:40:04.125Z,98.43
2022-12-27T19:42:39.685Z,115.30
2022-12-27T19:45:07.020Z,114.35
2022-12-27T19:47:38.075Z,115.20
2022-12-27T19:50:11.076Z,113.35
2022-12-27T19:52:39.640Z,106.07
2022-12-27T19:55:19.657Z,111.55
2022-12-27T19:57:48.346Z,106.18
2022-12-27T20:00:23.474Z,103.70
2022-12-27T20:02:51.249Z,105.35
2022-12-27T20:05:18.284Z,103.45
2022-12-27T20:08:12.461Z,110.80
2022-12-27T20:10:42.487Z,115.60
2022-12-27T20:13:18.436Z,103.00
2022-12-27T20:15:48.600Z,95.07
2022-12-27T20:18:22.044Z,93.72
2022-12-27T20:20:51.825Z,100.15
2022-12-27T20:23:21.980Z,102.65
2022-12-27T20:25:52.929Z,89.90
2022-12-27T20:28:24.798Z,115.05
2022-12-27T20:30:51.749Z,91.72
2022-12-27T20:33:18.767Z,94.68
2022-12-27T20:35:55.182Z,117.13
2022-12-27T20:38:23.665Z,119.72
2022-12-27T20:40:56.417Z,102.07
2022-12-27T20:43:23.360Z,86.28
2022-12-27T20:45:50.362Z,96.32
2022-12-27T20:48:17.431Z,88.03
2022-12-27T20:50:53.294Z,124.75
2022-12-27T20:53:20.273Z,104.68
2022-12-27T20:55:58.050Z,122.05
2022-12-27T20:58:31.429Z,127.80
2022-12-27T21:00:58.649Z,126.05
2022-12-27T21:03:33.120Z,126.43
2022-12-27T21:06:07.260Z,96.90
2022-12-27T21:08:46.503Z,108.93
2022-12-27T21:11:24.075Z,91.57
2022-12-27T21:13:53.889Z,86.93
2022-12-27T21:16:23.845Z,94.32
2022-12-27T21:18:50.847Z,112.72
2022-12-27T21:21:20.497Z,116.03
2022-12-27T21:23:50.039Z,94.40
2022-12-27T21:26:25.568Z,89.78
2022-12-27T21:28:52.999Z,109.80
2022-12-27T21:31:29.076Z,88.45
2022-12-27T21:33:56.698Z,109.40
2022-12-27T21:36:25.379Z,117.47
2022-12-27T21:38:55.768Z,121.00
2022-12-27T21:41:28.361Z,91.95
2022-12-27T21:43:55.496Z,115.30
2022-12-27T21:46:28.099Z,110.72
2022-12-27T21:49:09.096Z,89.60
2022-12-27T21:51:37.731Z,102.78
2022-12-27T21:54:08.350Z,83.57
2022-12-27T21:56:41.489Z,78.78
2022-12-27T21:59:15.827Z,104.38
2022-12-27T22:01:49.979Z,105.32
2022-12-27T22:04:21.338Z,100.10
2022-12-27T22:06:48.399Z,100.65
2022-12-27T22:09:25.007Z,105.25
2022-12-27T22:11:51.891Z,84.68
2022-12-27T22:14:23.317Z,84.40
2022-12-27T22:16:52.325Z,97.03
2022-12-27T22:19:19.137Z,105.47
2022-12-27T22:21:45.998Z,88.63
2022-12-27T22:24:19.571Z,83.22
2022-12-27T22:26:48.829Z,96.75
2022-12-27T22:29:16.034Z,82.65
2022-12-27T22:31:43.085Z,79.22
2022-12-27T22:34:10.101Z,84.70
2022-12-27T22:36:37.029Z,75.22
2022-12-27T22:39:14.160Z,99.10
2022-12-27T22:41:43.194Z,83.30
2022-12-27T22:44:15.187Z,107.13
2022-12-27T22:47:25.264Z,106.68
2022-12-27T22:49:36.160Z,108.70
2022-12-27T22:52:03.226Z,111.22
2022-12-27T22:55:05.353Z,122.80
2022-12-27T22:57:17.437Z,126.05
2022-12-27T22:59:44.489Z,130.30
2022-12-27T23:02:14.650Z,131.07
2022-12-27T23:04:44.837Z,131.25
2022-12-27T23:07:11.986Z,135.07
2022-12-27T23:09:43.846Z,100.43
2022-12-27T23:12:11.537Z,127.72
2022-12-27T23:14:39.832Z,84.22
2022-12-27T23:17:06.904Z,98.53
2022-12-27T23:19:35.558Z,117.55
2022-12-27T23:22:02.600Z,119.78
2022-12-27T23:24:30.682Z,89.68
2022-12-27T23:26:57.651Z,126.72
2022-12-27T23:29:24.785Z,83.95
2022-12-27T23:31:54.893Z,107.55
2022-12-27T23:34:29.289Z,88.90
2022-12-27T23:36:59.827Z,77.20
2022-12-27T23:39:28.557Z,96.90
2022-12-27T23:41:58.378Z,103.60
2022-12-27T23:44:33.670Z,115.60
2022-12-27T23:47:02.439Z,127.90
2022-12-27T23:49:30.487Z,90.13
2022-12-27T23:52:03.248Z,89.82
2022-12-27T23:54:30.454Z,84.72
2022-12-27T23:56:57.636Z,109.13
2022-12-27T23:59:24.988Z,104.50
